createdAt,value
2023-02-15T00:02:36.451Z,100816.41
2023-02-15T00:07:43.890Z,100813.61
2023-02-15T00:12:51.081Z,100811.68
2023-02-15T00:17:56.708Z,100814.04
2023-02-15T00:23:04.463Z,100815.92
2023-02-15T00:28:12.132Z,100809.05
2023-02-15T00:33:19.808Z,100804.98
2023-02-15T00:38:28.491Z,100801.41
2023-02-15T00:43:37.621Z,100796.17
2023-02-15T00:48:45.393Z,100795.16
2023-02-15T00:53:53.357Z,100791.61
2023-02-15T00:59:01.891Z,100784.17
2023-02-15T01:04:10.500Z,100774.48
2023-02-15T01:09:20.060Z,100762.14
2023-02-15T01:14:29.121Z,100757.30
2023-02-15T01:19:36.931Z,100756.52
2023-02-15T01:24:45.784Z,100759.10
2023-02-15T01:29:53.997Z,100754.13
2023-02-15T01:35:03.629Z,100749.81
2023-02-15T01:40:18.764Z,100746.25
2023-02-15T01:45:29.151Z,100747.77
2023-02-15T01:50:40.923Z,100743.95
2023-02-15T01:55:52.990Z,100737.79
2023-02-15T02:01:04.855Z,100735.67
2023-02-15T02:06:12.402Z,100729.52
2023-02-15T02:11:19.769Z,100722.02
2023-02-15T02:16:32.392Z,100717.09
2023-02-15T02:29:20.615Z,100712.66
2023-02-15T02:34:32.803Z,100706.06
2023-02-15T02:39:48.773Z,100700.84
2023-02-15T02:45:02.796Z,100697.91
2023-02-15T02:50:15.275Z,100695.25
2023-02-15T02:55:29.872Z,100694.19
2023-02-15T03:00:42.739Z,100694.66
2023-02-15T03:05:53.354Z,100690.52
2023-02-15T03:11:03.951Z,100685.81
2023-02-15T03:16:29.210Z,100682.33
2023-02-15T03:21:40.553Z,100682.42
2023-02-15T03:26:52.464Z,100675.38
2023-02-15T03:32:04.174Z,100673.45
2023-02-15T03:37:18.222Z,100670.49
2023-02-15T03:42:32.257Z,100667.39
2023-02-15T03:47:43.796Z,100661.72
2023-02-15T03:52:51.682Z,100657.59
2023-02-15T03:58:16.881Z,100656.32
2023-02-15T04:03:34.935Z,100658.42
2023-02-15T04:09:00.915Z,100661.71
2023-02-15T04:14:36.937Z,100665.89
2023-02-15T04:20:02.178Z,100663.58
2023-02-15T04:25:13.957Z,100660.92
2023-02-15T04:30:24.062Z,100662.86
2023-02-15T04:35:32.990Z,100660.02
2023-02-15T04:40:40.453Z,100656.65
2023-02-15T04:45:52.824Z,100655.45
2023-02-15T04:51:00.684Z,100655.61
2023-02-15T04:56:09.821Z,100658.26
2023-02-15T05:01:17.327Z,100657.05
2023-02-15T05:06:25.062Z,100660.59
2023-02-15T05:11:32.721Z,100657.71
2023-02-15T05:16:40.159Z,100663.92
2023-02-15T05:21:47.663Z,100661.64
2023-02-15T05:27:12.780Z,100654.64
2023-02-15T05:32:20.626Z,100658.65
2023-02-15T05:37:28.280Z,100662.15
2023-02-15T05:42:35.857Z,100665.14
2023-02-15T05:47:43.594Z,100670.30
2023-02-15T05:52:52.521Z,100668.08
2023-02-15T05:58:02.557Z,100673.63
2023-02-15T06:03:10.251Z,100669.40
2023-02-15T06:08:20.398Z,100670.05
2023-02-15T06:13:28.468Z,100665.75
2023-02-15T06:18:36.176Z,100666.20
2023-02-15T06:23:44.397Z,100667.65
2023-02-15T06:28:51.949Z,100664.98
2023-02-15T06:34:02.399Z,100666.38
2023-02-15T06:39:09.981Z,100672.89
2023-02-15T06:44:17.378Z,100673.55
2023-02-15T06:49:24.842Z,100675.25
2023-02-15T06:54:32.358Z,100674.64
2023-02-15T06:59:39.454Z,100676.20
2023-02-15T07:04:46.823Z,100671.48
2023-02-15T07:09:53.964Z,100669.50
2023-02-15T07:15:00.359Z,100671.42
2023-02-15T07:20:10.069Z,100669.17
2023-02-15T07:28:19.471Z,100662.23
2023-02-15T07:33:28.891Z,100660.75
2023-02-15T07:38:39.880Z,100654.52
2023-02-15T07:43:48.619Z,100654.34
2023-02-15T07:48:56.496Z,100653.46
2023-02-15T07:54:04.219Z,100653.66
2023-02-15T07:59:11.701Z,100656.83
2023-02-15T08:04:19.321Z,100655.39
2023-02-15T08:09:26.825Z,100649.67
2023-02-15T08:14:34.057Z,100647.38
2023-02-15T08:19:39.633Z,100639.56
2023-02-15T08:28:36.141Z,100643.89
2023-02-15T08:33:45.293Z,100635.08
2023-02-15T08:38:53.145Z,100634.32
2023-02-15T08:44:04.850Z,100629.45
2023-02-15T08:49:14.160Z,100623.85
2023-02-15T08:54:23.686Z,100622.58
2023-02-15T08:59:32.058Z,100624.32
2023-02-15T09:04:39.864Z,100622.80
2023-02-15T09:09:48.290Z,100622.89
2023-02-15T09:14:55.602Z,100617.83
2023-02-15T09:20:03.208Z,100619.10
2023-02-15T09:25:11.272Z,100614.34
2023-02-15T09:30:19.586Z,100608.47
2023-02-15T09:35:27.526Z,100604.05
2023-02-15T09:40:42.165Z,100602.53
2023-02-15T09:46:16.354Z,100604.02
2023-02-15T09:51:37.018Z,100595.95
2023-02-15T09:56:50.743Z,100589.94
2023-02-15T10:02:17.742Z,100577.92
2023-02-15T10:07:40.070Z,100568.92
2023-02-15T10:13:15.669Z,100562.11
2023-02-15T10:18:41.338Z,100558.05
2023-02-15T10:24:10.624Z,100556.23
2023-02-15T10:29:30.049Z,100543.69
2023-02-15T10:34:41.977Z,100536.64
2023-02-15T10:40:01.466Z,100532.39
2023-02-15T10:45:23.414Z,100536.65
2023-02-15T10:50:45.665Z,100530.14
2023-02-15T10:56:05.372Z,100524.98
2023-02-15T11:01:22.632Z,100518.77
2023-02-15T11:06:30.734Z,100515.08
2023-02-15T11:11:43.152Z,100498.11
2023-02-15T11:16:55.721Z,100491.36
2023-02-15T11:28:21.649Z,100481.38
2023-02-15T11:33:33.077Z,100479.27
2023-02-15T11:38:44.663Z,100472.14
2023-02-15T11:43:58.158Z,100466.27
2023-02-15T11:49:07.297Z,100456.46
2023-02-15T11:54:15.592Z,100453.55
2023-02-15T11:59:32.005Z,100449.22
2023-02-15T12:04:45.521Z,100442.56
2023-02-15T12:10:01.871Z,100434.72
2023-02-15T12:15:11.406Z,100425.30
2023-02-15T12:20:31.561Z,100419.27
2023-02-15T12:25:43.609Z,100410.06
2023-02-15T12:30:51.420Z,100407.86
2023-02-15T12:36:03.162Z,100403.65
2023-02-15T12:41:27.772Z,100396.30
2023-02-15T12:46:38.614Z,100393.10
2023-02-15T12:51:53.915Z,100389.80
2023-02-15T12:57:02.008Z,100387.23
2023-02-15T13:02:17.821Z,100381.67
2023-02-15T13:07:26.843Z,100373.50
2023-02-15T13:12:35.921Z,100364.35
2023-02-15T13:17:45.268Z,100357.79
2023-02-15T13:22:55.172Z,100352.27
2023-02-15T13:28:05.707Z,100350.23
2023-02-15T13:33:20.862Z,100346.52
2023-02-15T13:38:49.365Z,100341.01
2023-02-15T13:44:06.566Z,100334.92
2023-02-15T13:49:29.546Z,100335.34
2023-02-15T13:54:56.257Z,100328.18
2023-02-15T14:00:16.485Z,100322.38
2023-02-15T14:05:37.192Z,100317.58
2023-02-15T14:10:52.424Z,100318.70
2023-02-15T14:16:05.844Z,100311.55
2023-02-15T14:21:17.858Z,100306.31
2023-02-15T14:26:39.422Z,100303.55
2023-02-15T14:31:52.969Z,100299.02
2023-02-15T14:37:02.219Z,100299.73
2023-02-15T14:42:18.153Z,100297.42
2023-02-15T14:47:32.148Z,100293.17
2023-02-15T14:53:16.700Z,100288.13
2023-02-15T14:58:24.827Z,100284.27
2023-02-15T15:03:33.026Z,100283.13
2023-02-15T15:08:43.990Z,100279.02
2023-02-15T15:13:58.844Z,100279.06
2023-02-15T15:19:11.576Z,100275.17
2023-02-15T15:24:52.263Z,100270.58
2023-02-15T15:30:00.330Z,100265.60
2023-02-15T15:35:24.456Z,100259.42
2023-02-15T15:41:11.476Z,100260.23
2023-02-15T15:46:34.893Z,100256.73
2023-02-15T15:51:45.773Z,100252.41
2023-02-15T15:56:58.341Z,100250.88
2023-02-15T16:02:10.135Z,100248.59
2023-02-15T16:07:29.193Z,100249.64
2023-02-15T16:12:38.895Z,100246.75
2023-02-15T16:17:49.920Z,100245.92
2023-02-15T16:23:08.556Z,100245.55
2023-02-15T16:28:19.705Z,100242.79
2023-02-15T16:33:37.048Z,100241.02
2023-02-15T16:39:08.169Z,100236.58
2023-02-15T16:44:21.617Z,100233.29
2023-02-15T16:49:32.512Z,100235.77
2023-02-15T16:54:44.194Z,100235.48
2023-02-15T16:59:54.401Z,100241.28
2023-02-15T17:05:22.442Z,100242.55
2023-02-15T17:10:37.617Z,100236.45
2023-02-15T17:15:46.500Z,100236.52
2023-02-15T17:20:56.907Z,100235.78
2023-02-15T17:28:30.716Z,100235.98
2023-02-15T17:33:42.226Z,100233.30
2023-02-15T17:39:07.507Z,100229.59
2023-02-15T17:44:16.829Z,100223.20
2023-02-15T17:49:29.897Z,100223.53
2023-02-15T17:54:54.944Z,100218.34
2023-02-15T18:00:19.951Z,100216.41
2023-02-15T18:05:45.310Z,100208.55
2023-02-15T18:11:10.581Z,100205.21
2023-02-15T18:16:28.170Z,100207.45
2023-02-15T18:21:37.242Z,100208.14
2023-02-15T18:26:45.134Z,100212.90
2023-02-15T18:31:56.653Z,100204.83
2023-02-15T18:37:06.935Z,100201.00
2023-02-15T18:42:23.006Z,100196.77
2023-02-15T18:47:30.714Z,100195.80
2023-02-15T18:52:40.851Z,100192.83
2023-02-15T18:57:49.668Z,100194.77
2023-02-15T19:02:57.614Z,100192.98
2023-02-15T19:08:06.274Z,100188.73
2023-02-15T19:13:15.169Z,100187.27
2023-02-15T19:18:22.628Z,100185.42
2023-02-15T19:23:31.675Z,100186.48
2023-02-15T19:28:39.278Z,100183.63
2023-02-15T19:33:46.845Z,100183.05
2023-02-15T19:38:56.440Z,100175.58
2023-02-15T19:44:04.105Z,100171.12
2023-02-15T19:49:13.934Z,100167.58
2023-02-15T19:54:33.018Z,100164.86
2023-02-15T19:59:41.704Z,100164.30
2023-02-15T20:04:49.800Z,100161.27
2023-02-15T20:09:57.341Z,100161.71
2023-02-15T20:15:17.921Z,100157.55
2023-02-15T20:20:30.478Z,100156.15
2023-02-15T20:25:37.940Z,100153.11
2023-02-15T20:30:46.075Z,100156.30
2023-02-15T20:35:54.183Z,100157.32
2023-02-15T20:41:20.041Z,100154.30
2023-02-15T20:46:28.286Z,100150.31
2023-02-15T20:51:36.802Z,100142.09
2023-02-15T20:56:45.206Z,100139.95
2023-02-15T21:01:55.828Z,100141.34
2023-02-15T21:07:04.032Z,100137.80
2023-02-15T21:12:16.846Z,100134.19
2023-02-15T21:17:24.216Z,100130.88
2023-02-15T21:22:31.892Z,100130.14
2023-02-15T21:27:39.489Z,100129.52
2023-02-15T21:32:47.403Z,100130.52
2023-02-15T21:37:55.924Z,100122.42
2023-02-15T21:43:21.652Z,100119.36
2023-02-15T21:48:29.545Z,100114.89
2023-02-15T21:53:40.899Z,100111.15
2023-02-15T21:58:49.706Z,100107.11
2023-02-15T22:03:59.904Z,100106.99
2023-02-15T22:09:18.040Z,100106.06
2023-02-15T22:14:39.519Z,100100.62
2023-02-15T22:19:48.618Z,100103.02
2023-02-15T22:24:56.279Z,100098.75
2023-02-15T22:30:04.602Z,100096.92
2023-02-15T22:35:17.793Z,100098.48
2023-02-15T22:40:32.033Z,100091.57
2023-02-15T22:45:39.812Z,100086.95
2023-02-15T22:50:47.693Z,100084.75
2023-02-15T22:55:56.785Z,100083.27
2023-02-15T23:01:05.716Z,100078.52
2023-02-15T23:06:14.820Z,100074.42
2023-02-15T23:11:22.739Z,100073.96
2023-02-15T23:16:30.362Z,100076.12
2023-02-15T23:21:38.477Z,100075.30
2023-02-15T23:26:46.288Z,100073.60
2023-02-15T23:31:55.148Z,100068.94
2023-02-15T23:37:02.719Z,100069.52
2023-02-15T23:42:13.978Z,100062.77
2023-02-15T23:47:39.770Z,100063.93
2023-02-15T23:52:47.038Z,100058.33
2023-02-15T23:57:52.560Z,100052.42
